Time;durP1;ratioP1;P1;durP2;ratioP2;P2;SDS_P1;SDS_P2;PMS_P1;PMS_P2;Temp;Humidity;BMP_temperature;BMP_pressure;BME280_temperature;BME280_humidity;BME280_pressure;Samples;Min_cycle;Max_cycle;Signal;HPM_P1;HPM_P2
2022/07/31 00:00:48;;;;;;;5.95;4.68;;;18.00;99.90;;;;;;5056102;28;20068;-78
2022/07/31 00:03:14;;;;;;;9.35;5.70;;;18.10;99.90;;;;;;5055896;28;20068;-78
2022/07/31 00:05:40;;;;;;;7.88;5.22;;;18.10;99.90;;;;;;5055888;28;20497;-78
2022/07/31 00:08:05;;;;;;;8.63;4.80;;;18.00;99.90;;;;;;5055932;28;20438;-78
2022/07/31 00:10:32;;;;;;;7.15;4.95;;;18.00;99.90;;;;;;5056116;28;20499;-78
2022/07/31 00:12:57;;;;;;;14.57;5.32;;;18.10;99.90;;;;;;5054464;28;20490;-78
2022/07/31 00:15:23;;;;;;;9.68;5.10;;;18.00;99.90;;;;;;5054732;28;20125;-78
2022/07/31 00:17:49;;;;;;;8.52;5.18;;;18.00;99.90;;;;;;5055719;28;20057;-78
2022/07/31 00:20:16;;;;;;;8.32;4.93;;;18.00;99.90;;;;;;5054662;28;20047;-78
2022/07/31 00:22:44;;;;;;;9.85;5.55;;;18.00;99.90;;;;;;5054119;28;20052;-78
2022/07/31 00:25:11;;;;;;;7.80;5.38;;;18.00;99.90;;;;;;5055604;28;20132;-78
2022/07/31 00:27:38;;;;;;;9.68;5.35;;;18.00;99.90;;;;;;5055166;28;20535;-78
2022/07/31 00:30:05;;;;;;;8.85;5.40;;;18.10;99.90;;;;;;5055405;28;20488;-78
2022/07/31 00:32:30;;;;;;;8.32;5.15;;;18.00;99.90;;;;;;5055488;28;20402;-78
2022/07/31 00:34:56;;;;;;;8.57;4.95;;;18.00;99.90;;;;;;5055121;28;20525;-78
2022/07/31 00:37:21;;;;;;;7.28;4.95;;;18.00;99.90;;;;;;5055365;28;20041;-78
2022/07/31 00:39:48;;;;;;;9.00;5.03;;;18.00;99.90;;;;;;5055336;28;20475;-78
2022/07/31 00:42:17;;;;;;;9.57;5.38;;;18.00;99.90;;;;;;5055214;28;20037;-77
2022/07/31 00:44:43;;;;;;;9.07;5.72;;;18.10;99.90;;;;;;5054204;28;20510;-77
2022/07/31 00:47:09;;;;;;;9.10;5.70;;;18.00;99.90;;;;;;5054060;28;20395;-77
2022/07/31 00:49:34;;;;;;;6.90;5.28;;;18.00;99.90;;;;;;5055128;28;20487;-77
2022/07/31 00:52:00;;;;;;;8.93;5.55;;;18.10;99.90;;;;;;5053673;28;20036;-77
2022/07/31 00:54:26;;;;;;;9.70;5.63;;;18.10;99.90;;;;;;5054949;28;20048;-78
2022/07/31 00:56:51;;;;;;;9.68;5.60;;;18.10;99.90;;;;;;5054866;28;20049;-78
2022/07/31 00:59:17;;;;;;;9.25;6.32;;;18.10;99.90;;;;;;5054935;28;20094;-78
2022/07/31 01:01:43;;;;;;;7.93;5.75;;;18.10;99.90;;;;;;5054570;28;20044;-78
2022/07/31 01:04:08;;;;;;;11.77;6.30;;;18.10;99.90;;;;;;5054758;28;20396;-78
2022/07/31 01:06:34;;;;;;;11.18;6.20;;;18.10;99.90;;;;;;5053617;28;20072;-78
2022/07/31 01:09:00;;;;;;;11.57;6.03;;;18.10;99.90;;;;;;5054750;28;20483;-78
2022/07/31 01:11:37;;;;;;;9.38;6.78;;;18.10;99.90;;;;;;5054543;28;20052;-78
2022/07/31 01:14:06;;;;;;;8.70;6.03;;;18.10;99.90;;;;;;5054751;28;20076;-78
2022/07/31 01:16:40;;;;;;;9.20;6.10;;;18.10;99.90;;;;;;5053278;28;20396;-77
2022/07/31 01:19:21;;;;;;;9.57;5.80;;;18.10;99.90;;;;;;5054594;28;20045;-77
2022/07/31 01:22:03;;;;;;;9.23;5.68;;;18.10;99.90;;;;;;5053170;28;20428;-77
2022/07/31 01:24:46;;;;;;;6.90;4.97;;;18.10;99.90;;;;;;5054531;28;20044;-77
2022/07/31 01:27:36;;;;;;;;;;;18.10;99.90;;;;;;5053677;28;20049;-78
2022/07/31 01:30:03;;;;;;;14.02;5.30;;;18.10;99.90;;;;;;5016796;28;20430;-78
2022/07/31 01:32:34;;;;;;;7.68;4.97;;;18.10;99.90;;;;;;5054204;28;20136;-78
2022/07/31 01:35:06;;;;;;;8.65;5.15;;;18.10;99.90;;;;;;5054267;28;20076;-78
2022/07/31 01:37:44;;;;;;;8.88;5.40;;;18.10;99.90;;;;;;5053311;28;20053;-78
2022/07/31 01:40:19;;;;;;;8.52;5.10;;;18.10;99.90;;;;;;5054573;28;20138;-78
2022/07/31 01:42:51;;;;;;;7.95;5.28;;;18.10;99.90;;;;;;5052961;28;20498;-78
2022/07/31 01:45:18;;;;;;;;;;;18.10;99.90;;;;;;5054552;28;20041;-78
2022/07/31 01:47:45;;;;;;;6.93;5.40;;;18.00;99.90;;;;;;5053001;28;19932;-78
2022/07/31 01:50:12;;;;;;;7.25;5.47;;;18.10;99.90;;;;;;5053822;28;20048;-78
2022/07/31 01:52:39;;;;;;;6.85;5.13;;;18.00;99.90;;;;;;5053078;28;20143;-78
2022/07/31 01:55:06;;;;;;;11.05;5.53;;;18.00;99.90;;;;;;5053828;28;20093;-78
2022/07/31 01:57:34;;;;;;;9.20;5.55;;;18.00;99.90;;;;;;5053523;28;20507;-78
2022/07/31 02:00:02;;;;;;;10.30;6.05;;;18.00;99.90;;;;;;5053831;28;20044;-78
2022/07/31 02:02:29;;;;;;;12.35;6.75;;;18.00;99.90;;;;;;5052543;28;20044;-78
2022/07/31 02:04:56;;;;;;;13.93;7.32;;;18.00;99.90;;;;;;5053806;28;20119;-78
2022/07/31 02:07:23;;;;;;;12.48;6.60;;;18.00;99.90;;;;;;5053855;28;20033;-78
2022/07/31 02:09:50;;;;;;;11.93;7.13;;;18.00;99.90;;;;;;5053621;28;20393;-78
2022/07/31 02:12:18;;;;;;;12.13;7.25;;;18.00;99.90;;;;;;5053787;28;20041;-78
2022/07/31 02:14:44;;;;;;;12.68;7.47;;;18.00;99.90;;;;;;5053684;28;20045;-78
2022/07/31 02:17:11;;;;;;;13.13;7.55;;;17.90;99.90;;;;;;5052220;28;20101;-78
2022/07/31 02:19:39;;;;;;;10.63;7.50;;;17.90;99.90;;;;;;5053887;28;20434;-78
2022/07/31 02:22:05;;;;;;;14.30;7.53;;;17.90;99.90;;;;;;5052391;28;20361;-78
2022/07/31 02:24:32;;;;;;;12.75;8.18;;;17.90;99.90;;;;;;5052294;28;20045;-78
2022/07/31 02:27:00;;;;;;;10.82;7.45;;;17.80;99.90;;;;;;5053506;28;20483;-78
2022/07/31 02:29:29;;;;;;;12.80;6.97;;;17.80;99.90;;;;;;5053178;28;20060;-78
2022/07/31 02:31:57;;;;;;;10.88;7.95;;;17.90;99.90;;;;;;5053566;28;20094;-78
2022/07/31 02:34:23;;;;;;;8.57;7.15;;;17.80;99.90;;;;;;5053506;28;20079;-78
2022/07/31 02:36:52;;;;;;;9.63;6.85;;;17.80;99.90;;;;;;5053499;28;20041;-78
2022/07/31 02:39:18;;;;;;;8.80;6.53;;;17.80;99.90;;;;;;5052184;28;20056;-78
2022/07/31 02:41:46;;;;;;;8.75;7.05;;;17.80;99.90;;;;;;5053410;28;20045;-77
2022/07/31 02:44:13;;;;;;;11.15;6.90;;;17.80;99.90;;;;;;5053543;28;20388;-78
2022/07/31 02:46:41;;;;;;;9.35;7.72;;;17.80;99.90;;;;;;5053386;28;20060;-78
2022/07/31 02:49:07;;;;;;;10.23;7.32;;;17.80;99.90;;;;;;5053371;28;20041;-78
2022/07/31 02:51:33;;;;;;;8.75;7.30;;;17.80;99.90;;;;;;5053223;28;20067;-77
2022/07/31 02:53:59;;;;;;;11.27;6.97;;;17.80;99.90;;;;;;5053362;28;20036;-78
2022/07/31 02:56:26;;;;;;;10.52;7.47;;;17.70;99.90;;;;;;5052247;28;20067;-78
2022/07/31 02:58:52;;;;;;;11.85;7.22;;;17.70;99.90;;;;;;5053307;28;20049;-78
2022/07/31 03:01:18;;;;;;;9.65;7.70;;;17.70;99.90;;;;;;5053272;28;20119;-78
2022/07/31 03:03:43;;;;;;;11.52;7.45;;;17.70;99.90;;;;;;5052980;28;20458;-77
2022/07/31 03:06:09;;;;;;;10.25;7.43;;;17.70;99.90;;;;;;5051912;28;20064;-77
2022/07/31 03:08:35;;;;;;;12.05;7.75;;;17.70;99.90;;;;;;5053244;28;20125;-77
2022/07/31 03:11:00;;;;;;;12.18;7.78;;;17.70;99.90;;;;;;5056501;28;20071;-77
2022/07/31 03:13:30;;;;;;;8.85;7.93;;;17.70;99.90;;;;;;5057301;28;20095;-78
2022/07/31 03:15:56;;;;;;;9.93;7.43;;;17.70;99.90;;;;;;5056699;28;20479;-78
2022/07/31 03:18:23;;;;;;;9.85;7.40;;;17.70;99.90;;;;;;5056822;28;20045;-78
2022/07/31 03:20:50;;;;;;;13.05;7.57;;;17.70;99.90;;;;;;5055751;28;20084;-78
2022/07/31 03:23:18;;;;;;;11.52;7.88;;;17.70;99.90;;;;;;5055557;28;20125;-77
2022/07/31 03:25:45;;;;;;;10.38;7.60;;;17.70;99.90;;;;;;5056622;28;20107;-77
2022/07/31 03:28:11;;;;;;;9.27;7.85;;;17.60;99.90;;;;;;5056321;28;20049;-78
2022/07/31 03:30:37;;;;;;;10.75;7.13;;;17.60;99.90;;;;;;5055226;28;20053;-78
2022/07/31 03:33:02;;;;;;;8.73;7.22;;;17.60;99.90;;;;;;5055236;28;20052;-78
2022/07/31 03:35:29;;;;;;;10.70;7.45;;;17.60;99.90;;;;;;5055202;28;20050;-78
2022/07/31 03:37:55;;;;;;;10.57;7.75;;;17.60;99.90;;;;;;5055384;28;20070;-78
2022/07/31 03:40:20;;;;;;;10.27;7.53;;;17.60;99.90;;;;;;5055951;28;20202;-78
2022/07/31 03:42:49;;;;;;;10.63;7.97;;;17.60;99.90;;;;;;5053745;28;20037;-78
2022/07/31 03:45:16;;;;;;;10.27;8.25;;;17.60;99.90;;;;;;5054804;28;20110;-78
2022/07/31 03:47:42;;;;;;;9.15;7.88;;;17.50;99.90;;;;;;5056226;28;20037;-78
2022/07/31 03:50:08;;;;;;;8.77;7.78;;;17.50;99.90;;;;;;5056128;28;20127;-78
2022/07/31 03:52:34;;;;;;;9.10;7.65;;;17.50;99.90;;;;;;5055907;28;20112;-78
2022/07/31 03:55:00;;;;;;;11.88;7.63;;;17.50;99.90;;;;;;5055825;28;20498;-78
2022/07/31 03:57:27;;;;;;;11.43;7.82;;;17.50;99.90;;;;;;5055896;28;20483;-78
2022/07/31 03:59:56;;;;;;;12.27;7.88;;;17.50;99.90;;;;;;5055757;28;20060;-78
2022/07/31 04:02:25;;;;;;;11.52;7.80;;;17.50;99.90;;;;;;5055806;28;20037;-78
2022/07/31 04:04:51;;;;;;;9.13;7.82;;;17.50;99.90;;;;;;5054406;28;20055;-78
2022/07/31 04:07:17;;;;;;;13.00;8.38;;;17.50;99.90;;;;;;5055492;28;20127;-78
2022/07/31 04:09:43;;;;;;;10.35;7.68;;;17.50;99.90;;;;;;5055885;28;20475;-78
2022/07/31 04:12:08;;;;;;;9.18;7.72;;;17.50;99.90;;;;;;5055755;28;20041;-78
2022/07/31 04:14:34;;;;;;;13.27;8.13;;;17.50;99.90;;;;;;5054218;28;20051;-78
2022/07/31 04:17:00;;;;;;;12.30;8.25;;;17.50;99.90;;;;;;5055624;28;20558;-78
2022/07/31 04:19:25;;;;;;;10.57;7.60;;;17.50;99.90;;;;;;5054201;28;20506;-78
2022/07/31 04:21:51;;;;;;;12.00;7.55;;;17.50;99.90;;;;;;5054255;28;20124;-79
2022/07/31 04:24:17;;;;;;;10.45;8.20;;;17.50;99.90;;;;;;5055453;28;20056;-78
2022/07/31 04:26:43;;;;;;;13.93;8.57;;;17.50;99.90;;;;;;5054304;28;20388;-79
2022/07/31 04:29:10;;;;;;;9.55;8.25;;;17.40;99.90;;;;;;5055114;28;20068;-78
2022/07/31 04:31:35;;;;;;;10.25;8.70;;;17.40;99.90;;;;;;5055471;28;20053;-78
2022/07/31 04:34:02;;;;;;;11.60;7.80;;;17.40;99.90;;;;;;5055327;28;20041;-78
2022/07/31 04:36:27;;;;;;;11.63;8.80;;;17.40;99.90;;;;;;5054084;28;20055;-78
2022/07/31 04:38:53;;;;;;;10.93;8.90;;;17.30;99.90;;;;;;5055215;28;20044;-78
2022/07/31 04:41:18;;;;;;;12.45;8.73;;;17.40;99.90;;;;;;5055288;28;20124;-78
2022/07/31 04:43:44;;;;;;;11.90;8.90;;;17.40;99.90;;;;;;5055087;28;20398;-78
2022/07/31 04:46:10;;;;;;;9.52;8.18;;;17.40;99.90;;;;;;5053780;28;20148;-78
2022/07/31 04:48:35;;;;;;;10.93;8.48;;;17.40;99.90;;;;;;5053902;28;20051;-78
2022/07/31 04:51:01;;;;;;;9.00;8.02;;;17.40;99.90;;;;;;5053430;28;20056;-78
2022/07/31 04:53:27;;;;;;;9.57;8.50;;;17.40;99.90;;;;;;5053541;28;20491;-78
2022/07/31 04:58:36;;;;;;;10.43;8.23;;;17.40;99.90;;;;;;5054667;28;20137;-78
2022/07/31 05:01:02;;;;;;;13.73;8.93;;;17.40;99.90;;;;;;5053379;28;20124;-79
2022/07/31 05:03:28;;;;;;;12.75;8.50;;;17.40;99.90;;;;;;5054722;28;20127;-78
2022/07/31 05:05:53;;;;;;;16.13;8.77;;;17.40;99.90;;;;;;5054752;28;20087;-78
2022/07/31 05:08:19;;;;;;;11.02;9.07;;;17.30;99.90;;;;;;5053230;28;20102;-78
2022/07/31 05:13:29;;;;;;;11.30;8.63;;;17.40;99.90;;;;;;5054363;28;20141;-78
2022/07/31 05:15:54;;;;;;;14.10;9.63;;;17.40;99.90;;;;;;5054231;28;20124;-78
2022/07/31 05:18:20;;;;;;;17.02;9.65;;;17.40;99.90;;;;;;5054542;28;20103;-78
2022/07/31 05:20:46;;;;;;;12.93;9.02;;;17.40;99.90;;;;;;5053260;28;20087;-78
2022/07/31 05:23:11;;;;;;;11.65;8.75;;;17.50;99.90;;;;;;5054381;28;20108;-78
2022/07/31 05:25:37;;;;;;;9.90;8.52;;;17.50;99.90;;;;;;5054226;28;20044;-78
2022/07/31 05:28:03;;;;;;;13.43;9.57;;;17.60;99.90;;;;;;5053958;28;20052;-78
2022/07/31 05:30:29;;;;;;;11.90;9.65;;;17.60;99.90;;;;;;5054098;28;20044;-78
2022/07/31 05:32:54;;;;;;;10.32;8.88;;;17.60;99.90;;;;;;5054043;28;20127;-78
2022/07/31 05:35:20;;;;;;;11.02;8.48;;;17.70;99.90;;;;;;5054250;28;20081;-77
2022/07/31 05:37:46;;;;;;;11.88;9.23;;;17.70;99.90;;;;;;5054203;28;20503;-78
2022/07/31 05:40:12;;;;;;;10.63;9.48;;;17.90;99.90;;;;;;5053898;28;20053;-78
2022/07/31 05:42:37;;;;;;;12.60;8.68;;;17.90;99.90;;;;;;5052528;28;20048;-78
2022/07/31 05:45:03;;;;;;;12.13;9.18;;;18.00;99.90;;;;;;5053872;28;20037;-78
2022/07/31 05:47:29;;;;;;;15.40;9.30;;;18.00;99.90;;;;;;5053766;28;20503;-78
2022/07/31 05:49:54;;;;;;;13.95;9.05;;;18.10;99.90;;;;;;5052728;28;20059;-78
2022/07/31 05:52:20;;;;;;;12.88;9.63;;;18.10;99.90;;;;;;5053850;28;20091;-78
2022/07/31 05:54:46;;;;;;;12.32;8.80;;;18.20;99.90;;;;;;5052815;28;20090;-78
2022/07/31 05:57:12;;;;;;;14.52;9.82;;;18.20;99.90;;;;;;5052457;28;20368;-78
2022/07/31 05:59:37;;;;;;;14.60;9.52;;;18.20;99.90;;;;;;5053548;28;20045;-78
2022/07/31 06:02:03;;;;;;;14.18;9.73;;;18.20;99.90;;;;;;5053104;28;20080;-78
2022/07/31 06:04:29;;;;;;;11.13;9.18;;;18.20;99.90;;;;;;5053863;28;20396;-78
2022/07/31 06:06:54;;;;;;;14.27;10.50;;;18.20;99.90;;;;;;5052557;28;20476;-78
2022/07/31 06:09:20;;;;;;;12.63;9.57;;;18.20;99.90;;;;;;5052451;28;20057;-78
2022/07/31 06:11:46;;;;;;;11.50;9.35;;;18.30;99.90;;;;;;5053571;28;20056;-78
2022/07/31 06:14:11;;;;;;;11.43;9.52;;;18.30;99.90;;;;;;5053672;28;20045;-78
2022/07/31 06:16:37;;;;;;;12.15;8.57;;;18.30;99.90;;;;;;5053368;28;20127;-78
2022/07/31 06:19:03;;;;;;;12.85;9.60;;;18.40;99.90;;;;;;5053451;28;20155;-78
2022/07/31 06:21:29;;;;;;;12.10;9.55;;;18.40;99.90;;;;;;5052194;28;20045;-78
2022/07/31 06:23:55;;;;;;;12.30;9.50;;;18.50;99.90;;;;;;5053427;28;20071;-78
2022/07/31 06:26:20;;;;;;;13.65;9.80;;;18.50;99.90;;;;;;5053432;28;20511;-78
2022/07/31 06:28:46;;;;;;;14.80;10.25;;;18.50;99.90;;;;;;5053102;28;20060;-78
2022/07/31 06:31:19;;;;;;;15.43;10.13;;;18.60;99.90;;;;;;5051983;28;20085;-78
2022/07/31 06:33:45;;;;;;;12.65;10.15;;;18.60;99.90;;;;;;5052337;28;20084;-78
2022/07/31 06:36:11;;;;;;;11.68;10.13;;;18.60;99.90;;;;;;5052247;28;20167;-79
2022/07/31 06:38:37;;;;;;;13.20;9.73;;;18.70;99.90;;;;;;5053110;28;20076;-77
2022/07/31 06:41:02;;;;;;;13.07;10.60;;;18.80;99.90;;;;;;5051957;28;20545;-78
2022/07/31 06:43:28;;;;;;;14.68;10.13;;;18.90;99.90;;;;;;5053046;28;20044;-79
2022/07/31 06:45:53;;;;;;;11.50;9.88;;;19.00;99.90;;;;;;5056498;28;20077;-78
2022/07/31 06:48:19;;;;;;;13.35;10.60;;;19.00;99.90;;;;;;5057357;28;20426;-79
2022/07/31 06:50:45;;;;;;;14.50;10.38;;;19.00;99.90;;;;;;5056216;28;20059;-79
2022/07/31 06:53:11;;;;;;;14.95;10.07;;;19.10;99.90;;;;;;5057296;28;20041;-79
2022/07/31 06:55:37;;;;;;;17.85;10.77;;;19.10;99.90;;;;;;5055755;28;20507;-79
2022/07/31 06:58:02;;;;;;;12.40;10.02;;;19.10;99.90;;;;;;5057165;28;20044;-78
2022/07/31 07:00:28;;;;;;;14.10;10.55;;;19.10;99.90;;;;;;5057210;28;20387;-79
2022/07/31 07:02:54;;;;;;;14.32;10.70;;;19.20;99.90;;;;;;5055554;28;20051;-79
2022/07/31 07:05:20;;;;;;;16.52;11.55;;;19.20;99.90;;;;;;5055582;28;20040;-79
2022/07/31 07:07:46;;;;;;;15.43;11.15;;;19.20;99.90;;;;;;5055501;28;20447;-79
2022/07/31 07:10:12;;;;;;;14.18;10.90;;;19.20;99.90;;;;;;5055513;28;20134;-78
2022/07/31 07:12:37;;;;;;;13.18;11.23;;;19.20;99.90;;;;;;5056928;28;20047;-78
2022/07/31 07:15:04;;;;;;;15.18;11.15;;;19.20;99.90;;;;;;5056874;28;20049;-79
2022/07/31 07:17:29;;;;;;;14.65;10.63;;;19.20;99.90;;;;;;5056597;28;20411;-79
2022/07/31 07:19:55;;;;;;;17.10;10.90;;;19.20;99.90;;;;;;5048620;28;20500;-78
2022/07/31 07:22:21;;;;;;;16.55;11.68;;;19.30;99.90;;;;;;5041624;28;20042;-78
2022/07/31 07:24:47;;;;;;;14.60;11.20;;;19.40;99.90;;;;;;5034762;28;20045;-77
2022/07/31 07:27:12;;;;;;;14.38;11.48;;;19.40;99.90;;;;;;5036186;28;20037;-77
2022/07/31 07:29:38;;;;;;;17.42;11.80;;;19.40;99.90;;;;;;5034891;28;20527;-78
2022/07/31 07:32:04;;;;;;;12.85;11.07;;;19.40;99.90;;;;;;5035004;28;20045;-77
2022/07/31 07:34:29;;;;;;;15.68;11.85;;;19.40;99.90;;;;;;5034911;28;20136;-77
2022/07/31 07:36:55;;;;;;;15.50;11.75;;;19.30;99.90;;;;;;5036283;28;20068;-77
2022/07/31 07:39:21;;;;;;;15.57;12.73;;;19.30;99.90;;;;;;5034905;28;20080;-76
2022/07/31 07:41:47;;;;;;;17.60;13.48;;;19.30;99.90;;;;;;5036042;28;20436;-77
2022/07/31 07:44:13;;;;;;;15.27;12.63;;;19.20;99.90;;;;;;5036200;28;20144;-76
2022/07/31 07:46:38;;;;;;;17.05;13.00;;;19.20;99.90;;;;;;5034971;28;20033;-77
2022/07/31 07:49:05;;;;;;;14.73;13.18;;;19.20;99.90;;;;;;5035891;28;20404;-77
2022/07/31 07:51:31;;;;;;;14.73;12.75;;;19.20;99.90;;;;;;5035811;28;20569;-76
2022/07/31 07:53:56;;;;;;;16.63;14.18;;;19.20;99.90;;;;;;5034660;28;20049;-76
2022/07/31 07:56:23;;;;;;;16.65;13.23;;;19.10;99.90;;;;;;5035499;28;20053;-77
2022/07/31 07:58:49;;;;;;;17.13;13.68;;;19.10;99.90;;;;;;5034517;28;20053;-78
2022/07/31 08:01:15;;;;;;;15.90;14.30;;;19.10;99.90;;;;;;5034712;28;20053;-76
2022/07/31 08:03:41;;;;;;;16.60;14.80;;;19.10;99.90;;;;;;5035647;28;20110;-76
2022/07/31 08:06:06;;;;;;;20.35;14.43;;;19.10;99.90;;;;;;5035615;28;20408;-77
2022/07/31 08:08:32;;;;;;;20.05;14.60;;;19.10;99.90;;;;;;5018477;28;20057;-76
2022/07/31 08:10:59;;;;;;;18.55;14.73;;;19.10;99.90;;;;;;5035376;28;20045;-77
2022/07/31 08:13:25;;;;;;;17.33;14.73;;;19.10;99.90;;;;;;5034320;28;20060;-77
2022/07/31 08:15:51;;;;;;;21.50;15.65;;;19.00;99.90;;;;;;5034138;28;20124;-78
2022/07/31 08:18:16;;;;;;;18.42;14.82;;;19.10;99.90;;;;;;5034075;28;20514;-77
2022/07/31 08:20:42;;;;;;;21.13;16.38;;;19.10;99.90;;;;;;5035598;28;20504;-78
2022/07/31 08:23:08;;;;;;;17.52;13.88;;;19.20;99.90;;;;;;5033917;28;20473;-78
2022/07/31 08:25:33;;;;;;;20.88;15.25;;;19.20;99.90;;;;;;5033936;28;20056;-77
2022/07/31 08:27:59;;;;;;;21.65;16.10;;;19.20;99.90;;;;;;5035161;28;20052;-78
2022/07/31 08:30:25;;;;;;;20.80;15.82;;;19.20;99.90;;;;;;5033963;28;20092;-78
2022/07/31 08:32:50;;;;;;;23.25;17.20;;;19.10;99.90;;;;;;5035398;28;20053;-77
2022/07/31 08:35:17;;;;;;;23.33;17.20;;;19.20;99.90;;;;;;5034081;28;20073;-77
2022/07/31 08:37:42;;;;;;;24.25;17.48;;;19.20;99.90;;;;;;5041971;28;20095;-77
2022/07/31 08:40:08;;;;;;;25.27;18.90;;;19.20;99.90;;;;;;5049100;28;20041;-77
2022/07/31 08:42:36;;;;;;;24.85;19.42;;;19.10;99.90;;;;;;5051597;28;20087;-76
2022/07/31 08:45:06;;;;;;;28.85;18.42;;;19.10;99.90;;;;;;5054779;28;20120;-76
2022/07/31 08:47:33;;;;;;;23.05;19.00;;;19.10;99.90;;;;;;5054697;28;20395;-76
2022/07/31 08:50:00;;;;;;;24.40;17.67;;;19.10;99.90;;;;;;5054871;28;20049;-76
2022/07/31 08:52:29;;;;;;;25.30;19.67;;;19.20;99.90;;;;;;5054160;28;20120;-76
2022/07/31 08:54:56;;;;;;;28.25;18.88;;;19.10;99.90;;;;;;5043962;28;20029;-77
2022/07/31 08:57:22;;;;;;;25.42;18.83;;;19.10;99.90;;;;;;5054341;28;20044;-76
2022/07/31 08:59:51;;;;;;;27.75;21.02;;;19.10;99.90;;;;;;5053322;28;20090;-76
2022/07/31 09:02:17;;;;;;;28.15;20.65;;;19.00;99.90;;;;;;5054600;28;20045;-76
2022/07/31 09:04:43;;;;;;;27.45;20.35;;;19.00;99.90;;;;;;5054578;28;20084;-76
2022/07/31 09:07:13;;;;;;;27.27;20.90;;;19.10;99.90;;;;;;5052828;28;20076;-76
2022/07/31 09:09:42;;;;;;;29.55;20.48;;;19.00;99.90;;;;;;5054499;28;20048;-76
2022/07/31 09:12:08;;;;;;;28.48;20.73;;;19.10;99.90;;;;;;5051298;28;20052;-76
2022/07/31 09:14:34;;;;;;;27.80;22.08;;;19.00;99.90;;;;;;5035615;28;20033;-76
2022/07/31 09:17:01;;;;;;;28.48;20.60;;;18.90;99.90;;;;;;5034760;28;20072;-76
2022/07/31 09:19:39;;;;;;;29.05;21.70;;;19.00;99.90;;;;;;5041958;28;20063;-76
2022/07/31 09:22:05;;;;;;;29.58;21.13;;;19.00;99.90;;;;;;5054145;28;20044;-76
2022/07/31 09:24:33;;;;;;;28.05;21.42;;;19.00;99.90;;;;;;5054213;28;20052;-76
2022/07/31 09:27:16;;;;;;;28.42;19.98;;;19.10;99.90;;;;;;5053930;28;20506;-76
2022/07/31 09:29:48;;;;;;;26.25;21.05;;;19.10;99.90;;;;;;5052502;28;20049;-76
2022/07/31 09:32:18;;;;;;;25.50;19.27;;;19.10;99.90;;;;;;5050163;28;20124;-76
2022/07/31 09:34:45;;;;;;;26.70;19.08;;;19.00;99.90;;;;;;5051220;28;20056;-76
2022/07/31 09:37:19;;;;;;;22.92;19.33;;;19.00;99.90;;;;;;5053565;28;20052;-76
2022/07/31 09:39:52;;;;;;;28.45;18.95;;;19.00;99.90;;;;;;5053799;28;20041;-76
2022/07/31 09:42:19;;;;;;;24.92;19.25;;;19.00;99.90;;;;;;5052746;28;20539;-75
2022/07/31 09:44:46;;;;;;;26.52;19.08;;;19.10;99.90;;;;;;5052335;28;20049;-76
2022/07/31 09:47:27;;;;;;;25.50;18.98;;;19.00;99.90;;;;;;5053130;28;20045;-76
2022/07/31 09:49:57;;;;;;;29.50;19.45;;;19.10;99.90;;;;;;5050059;28;20487;-76
2022/07/31 09:52:24;;;;;;;25.55;19.50;;;19.10;99.90;;;;;;5052599;28;20077;-76
2022/07/31 09:55:11;;;;;;;25.65;20.13;;;19.10;99.90;;;;;;5053794;28;20049;-76
2022/07/31 09:57:38;;;;;;;31.70;21.90;;;19.20;99.90;;;;;;5053230;28;20048;-76
2022/07/31 10:00:08;;;;;;;33.13;22.13;;;19.20;99.90;;;;;;5053356;28;20395;-75
2022/07/31 10:02:38;;;;;;;30.60;21.17;;;19.20;99.90;;;;;;5053014;28;20052;-75
2022/07/31 10:05:05;;;;;;;30.88;21.23;;;19.20;99.90;;;;;;5053397;28;20063;-75
2022/07/31 10:07:34;;;;;;;30.98;22.30;;;19.30;99.90;;;;;;5053075;28;20079;-75
2022/07/31 10:10:01;;;;;;;30.83;22.08;;;19.30;99.90;;;;;;5053498;28;20052;-75
2022/07/31 10:12:28;;;;;;;34.10;22.50;;;19.30;99.90;;;;;;5053480;28;20037;-75
2022/07/31 10:14:58;;;;;;;33.75;23.05;;;19.30;99.90;;;;;;5052630;28;20417;-75
2022/07/31 10:17:29;;;;;;;33.95;22.48;;;19.30;99.90;;;;;;5052513;28;20049;-75
2022/07/31 10:20:00;;;;;;;32.67;21.98;;;19.40;99.90;;;;;;5053231;28;20049;-75
2022/07/31 10:22:29;;;;;;;29.88;21.80;;;19.40;99.90;;;;;;5053381;28;20091;-76
2022/07/31 10:25:00;;;;;;;30.77;22.02;;;19.40;99.90;;;;;;5053420;28;20045;-75
2022/07/31 10:27:27;;;;;;;32.47;22.95;;;19.40;99.90;;;;;;5053481;28;20041;-76
2022/07/31 10:29:53;;;;;;;29.40;22.15;;;19.40;99.90;;;;;;5051802;28;20495;-75
2022/07/31 10:32:19;;;;;;;31.50;22.73;;;19.30;99.90;;;;;;5053022;28;20407;-75
2022/07/31 10:34:45;;;;;;;29.88;22.45;;;19.30;99.90;;;;;;5053198;28;20124;-75
2022/07/31 10:37:19;;;;;;;30.65;22.15;;;19.30;99.90;;;;;;5044806;28;20075;-75
2022/07/31 10:40:07;;;;;;;29.10;20.45;;;19.30;99.90;;;;;;5051797;28;20125;-76
2022/07/31 10:42:33;;;;;;;30.42;21.38;;;19.30;99.90;;;;;;5052790;28;20048;-76
2022/07/31 10:45:09;;;;;;;28.05;20.60;;;19.30;99.90;;;;;;5053249;28;20045;-77
2022/07/31 10:47:35;;;;;;;27.95;20.77;;;19.30;99.90;;;;;;5050630;28;20080;-76
2022/07/31 10:50:02;;;;;;;27.40;20.23;;;19.20;99.90;;;;;;5052886;28;20095;-76
2022/07/31 10:52:36;;;;;;;26.55;20.75;;;19.30;99.90;;;;;;5051885;28;20131;-76
2022/07/31 10:55:14;;;;;;;27.50;20.95;;;19.30;99.90;;;;;;5052972;28;20049;-75
2022/07/31 10:57:40;;;;;;;29.08;20.52;;;19.20;99.90;;;;;;5052998;28;20037;-76
2022/07/31 11:00:10;;;;;;;26.92;19.50;;;19.20;99.90;;;;;;5052094;28;20380;-76
2022/07/31 11:02:36;;;;;;;28.05;20.52;;;19.20;99.90;;;;;;5052654;28;20072;-76
2022/07/31 11:05:12;;;;;;;23.90;19.02;;;19.20;99.90;;;;;;5051727;28;20111;-76
2022/07/31 11:07:43;;;;;;;31.08;19.45;;;19.20;99.90;;;;;;5051105;28;20101;-76
2022/07/31 11:10:19;;;;;;;25.65;19.00;;;19.10;99.90;;;;;;5051304;28;20127;-76
2022/07/31 11:12:57;;;;;;;23.95;17.40;;;19.10;99.90;;;;;;5052681;28;20044;-76
2022/07/31 11:15:24;;;;;;;22.83;17.92;;;19.00;99.90;;;;;;5043713;28;20595;-76
2022/07/31 11:17:50;;;;;;;25.85;18.02;;;19.10;99.90;;;;;;5032824;28;20053;-76
2022/07/31 11:20:17;;;;;;;23.90;18.15;;;19.10;99.90;;;;;;5040082;28;20464;-77
2022/07/31 11:23:07;;;;;;;25.65;18.25;;;19.10;99.90;;;;;;5051059;28;20054;-77
2022/07/31 11:25:36;;;;;;;19.20;15.80;;;19.10;99.90;;;;;;5052592;28;20437;-77
2022/07/31 11:28:29;;;;;;;21.48;17.13;;;19.10;99.90;;;;;;5051056;28;20052;-76
2022/07/31 11:31:05;;;;;;;22.10;16.50;;;19.00;99.90;;;;;;5049218;28;20057;-76
2022/07/31 11:33:43;;;;;;;23.05;16.15;;;19.00;99.90;;;;;;5056337;28;20321;-76
2022/07/31 11:36:22;;;;;;;22.35;16.55;;;19.00;99.90;;;;;;5055052;28;20048;-77
2022/07/31 11:38:51;;;;;;;22.50;16.25;;;19.00;99.90;;;;;;5055699;28;20029;-77
2022/07/31 11:41:22;;;;;;;22.88;17.30;;;18.90;99.90;;;;;;5046042;28;20406;-77
2022/07/31 11:43:51;;;;;;;26.95;17.58;;;18.90;99.90;;;;;;5044285;28;20550;-77
2022/07/31 11:46:27;;;;;;;22.40;16.58;;;18.90;99.90;;;;;;5054906;28;20044;-77
2022/07/31 11:48:54;;;;;;;21.63;16.25;;;18.90;99.90;;;;;;5054782;28;20055;-77
2022/07/31 11:51:20;;;;;;;21.48;14.55;;;18.90;99.90;;;;;;5055680;28;20056;-77
2022/07/31 11:53:47;;;;;;;20.77;16.42;;;18.90;99.90;;;;;;5052967;28;20068;-77
2022/07/31 11:56:15;;;;;;;20.05;15.50;;;18.90;99.90;;;;;;5055178;28;20052;-76
2022/07/31 11:58:47;;;;;;;18.48;15.38;;;18.90;99.90;;;;;;5055817;28;20053;-76
2022/07/31 12:01:13;;;;;;;22.73;15.32;;;18.90;99.90;;;;;;5056185;28;20079;-77
2022/07/31 12:03:39;;;;;;;21.02;15.35;;;18.80;99.90;;;;;;5056095;28;20041;-76
2022/07/31 12:06:06;;;;;;;19.25;15.38;;;18.80;99.90;;;;;;5055054;28;20484;-76
2022/07/31 12:08:32;;;;;;;19.88;16.05;;;18.80;99.90;;;;;;5055500;28;20044;-76
2022/07/31 12:10:59;;;;;;;24.48;16.63;;;18.90;99.90;;;;;;5055762;28;20443;-77
2022/07/31 12:13:26;;;;;;;20.90;14.55;;;18.90;99.90;;;;;;5055481;28;20440;-77
2022/07/31 12:16:03;;;;;;;21.48;13.63;;;18.90;99.90;;;;;;5054188;28;20128;-77
2022/07/31 12:18:32;;;;;;;16.10;13.13;;;18.80;99.90;;;;;;5055412;28;20048;-77
2022/07/31 12:21:03;;;;;;;16.90;13.10;;;18.80;99.90;;;;;;5054025;28;20045;-77
2022/07/31 12:23:43;;;;;;;16.42;12.32;;;18.80;99.90;;;;;;5054137;28;20562;-77
2022/07/31 12:26:31;;;;;;;13.82;10.68;;;18.80;99.90;;;;;;5055554;28;20067;-77
2022/07/31 12:29:04;;;;;;;11.60;7.82;;;18.90;99.90;;;;;;5055140;28;20060;-77
2022/07/31 12:31:41;;;;;;;;;;;18.90;99.90;;;;;;5054569;28;20091;-77
2022/07/31 12:34:07;;;;;;;5.25;3.95;;;19.00;99.90;;;;;;5054138;28;19996;-77
2022/07/31 12:36:32;;;;;;;6.03;4.05;;;19.00;99.90;;;;;;5053863;28;20132;-77
2022/07/31 12:39:03;;;;;;;5.13;3.20;;;19.00;99.90;;;;;;5054028;28;20049;-77
2022/07/31 12:41:39;;;;;;;5.35;3.30;;;19.00;99.90;;;;;;5054918;28;20392;-77
2022/07/31 12:44:12;;;;;;;5.05;3.20;;;19.10;99.90;;;;;;5053667;28;20104;-77